Etretat — FIDP — position and weather

sailwx.info

Track history (hours):
 
Tides and Currents Weather Stations Pressure Air Temp Water Temp Dewpoint Dewpoint Depression Visibility Wind Speed Wind Dir Waves Ship Positions

Etretat

Last reported at 2016-Jul-30 12:33 UTC. Time now 2016-Jul-30 13:08 UTC.
Position N 50°49' W 001°06'.

Length 187 m; draft 6 m.

Type: Ship. MMSI: 228022900.

Date/timePositionNaut miles runAvg speedWind from/ knotsBaromVisibWave heightAir tempDewpointWater temp
2016-Jul-30 12:33N 50°49' W 001°06'0 0.0
2016-Jul-30 11:33N 50°49' W 001°06'0 0.0
2016-Jul-30 10:33N 50°49' W 001°06'0 0.0
2016-Jul-30 09:33N 50°49' W 001°06'0 0.0
2016-Jul-30 08:33N 50°49' W 001°06'0 0.0
2016-Jul-30 07:34N 50°49' W 001°06'0 0.0
2016-Jul-30 06:34N 50°49' W 001°06'0 0.0
2016-Jul-30 05:34N 50°49' W 001°06'0 0.0
2016-Jul-30 04:34N 50°49' W 001°06'0 0.0
2016-Jul-30 03:34N 50°49' W 001°06'0 0.0
2016-Jul-30 02:33N 50°49' W 001°06'0 0.0
2016-Jul-30 01:33N 50°49' W 001°06'0 0.0
2016-Jul-30 00:33N 50°49' W 001°06'0 0.0
2016-Jul-29 23:33N 50°49' W 001°06'0 0.0
2016-Jul-29 22:33N 50°49' W 001°06'0 0.0
2016-Jul-29 21:33N 50°49' W 001°06'0 0.0
2016-Jul-29 20:33N 50°49' W 001°06'0 0.0
2016-Jul-29 19:33N 50°49' W 001°06'0 0.0
2016-Jul-29 18:33N 50°49' W 001°06'0 0.0
2016-Jul-29 17:33N 50°49' W 001°06'0 0.0
2016-Jul-29 16:34N 50°49' W 001°06'0 0.0
2016-Jul-29 15:33N 50°49' W 001°06'0 0.0
2016-Jul-29 14:33N 50°49' W 001°06'0 0.0
2016-Jul-29 13:34N 50°49' W 001°06'0 0.0
2016-Jul-29 12:33N 50°49' W 001°06'0 0.0
2016-Jul-29 11:33N 50°49' W 001°06'0 0.0
2016-Jul-29 10:33N 50°49' W 001°06'0 0.0
2016-Jul-29 09:33N 50°49' W 001°06'0 0.0
2016-Jul-29 08:33N 50°49' W 001°06'0 0.0
2016-Jul-29 07:34N 50°49' W 001°06'0 0.0
2016-Jul-29 06:33N 50°49' W 001°06'4 3.7
2016-Jul-29 05:34N 50°45' W 001°05'1616.4
2016-Jul-29 04:33N 50°32' W 000°49'1615.0
2016-Jul-29 03:27N 50°18' W 000°35'1314.8
2016-Jul-29 02:34N 50°06' W 000°27'1514.7
2016-Jul-29 01:33N 49°53' W 000°17'9 8.8
2016-Jul-29 00:33N 49°44' W 000°15'1 0.9
2016-Jul-28 23:33N 49°44' W 000°16'0 0.4
2016-Jul-28 22:33N 49°44' W 000°17'2 2.0
2016-Jul-28 21:33N 49°43' W 000°14'1211.9
2016-Jul-28 20:33N 49°34' W 000°03'8 7.8
2016-Jul-28 19:33N 49°29' E 000°07'0 0.0
2016-Jul-28 18:33N 49°29' E 000°07'0 0.0
2016-Jul-28 17:33N 49°29' E 000°07'0 0.0
2016-Jul-28 16:33N 49°29' E 000°07'0 0.0
2016-Jul-28 15:33N 49°29' E 000°07'0 0.0
2016-Jul-28 14:33N 49°29' E 000°07'0 0.0
2016-Jul-28 13:33N 49°29' E 000°07'0 0.0
2016-Jul-28 12:33N 49°29' E 000°07'0 0.0
2016-Jul-28 11:33N 49°29' E 000°07'0 0.0
2016-Jul-28 10:33N 49°29' E 000°07'0 0.0
2016-Jul-28 09:33N 49°29' E 000°07'0 0.0
2016-Jul-28 08:33N 49°29' E 000°07'0 0.0
2016-Jul-28 07:33N 49°29' E 000°07'0 0.0
2016-Jul-28 06:33N 49°29' E 000°07'9 8.8
2016-Jul-28 05:34N 49°36' W 000°02'3 3.4
2016-Jul-28 04:33N 49°38' W 000°05'1111.0
2016-Jul-28 03:33N 49°48' W 000°13'1515.3
2016-Jul-28 02:33N 50°02' W 000°24'1515.5
2016-Jul-28 01:33N 50°15' W 000°36'1615.1
2016-Jul-28 00:30N 50°29' W 000°47'1515.3
2016-Jul-27 23:34N 50°42' W 000°58'8 8.2
2016-Jul-27 22:33N 50°49' W 001°06'0 0.0
2016-Jul-27 21:33N 50°49' W 001°06'0 0.1
2016-Jul-27 20:33N 50°49' W 001°06'9 9.2
2016-Jul-27 19:33N 50°41' W 000°57'2020.4
2016-Jul-27 18:33N 50°24' W 000°41'2220.5
2016-Jul-27 17:30N 50°04' W 000°26'1920.5
2016-Jul-27 16:34N 49°47' W 000°13'2020.1
2016-Jul-27 15:33N 49°30' E 000°03'2 2.4
2016-Jul-27 14:33N 49°29' E 000°07'0 0.0
2016-Jul-27 13:33N 49°29' E 000°07'0 0.0
2016-Jul-27 12:33N 49°29' E 000°07'0 0.0
2016-Jul-27 11:33N 49°29' E 000°07'0 0.0
2016-Jul-27 10:33N 49°29' E 000°07'0 0.0
2016-Jul-27 09:33N 49°29' E 000°07'0 0.0
2016-Jul-27 08:33N 49°29' E 000°07'0 0.0
2016-Jul-27 07:33N 49°29' E 000°07'0 0.0
2016-Jul-27 06:33N 49°29' E 000°07'9 8.9
2016-Jul-27 05:33N 49°35' W 000°03'1312.8
2016-Jul-27 04:33N 49°47' W 000°12'1211.8
2016-Jul-27 03:34N 49°58' W 000°19'1413.9
2016-Jul-27 02:33N 50°10' W 000°28'3015.3
2016-Jul-27 00:34N 50°36' W 000°53'1212.3
2016-Jul-26 23:33N 50°46' W 001°05'3 2.9
2016-Jul-26 22:33N 50°49' W 001°06'0 0.0
2016-Jul-26 21:33N 50°49' W 001°06'0 0.3
2016-Jul-26 20:33N 50°49' W 001°06'10 9.9
2016-Jul-26 19:33N 50°41' W 000°57'2219.2
2016-Jul-26 18:25N 50°21' W 000°42'1720.0
2016-Jul-26 17:33N 50°06' W 000°28'2019.9
2016-Jul-26 16:33N 49°49' W 000°14'2020.2
2016-Jul-26 15:33N 49°31' E 000°01'4 4.1
2016-Jul-26 14:34N 49°29' E 000°07'0 0.0
2016-Jul-26 13:34N 49°29' E 000°07'0 0.0
2016-Jul-26 12:34N 49°29' E 000°07'0 0.0
2016-Jul-26 11:34N 49°29' E 000°07'0 0.0
2016-Jul-26 10:33N 49°29' E 000°07'0 0.0
2016-Jul-26 09:34N 49°29' E 000°07'0 0.0
2016-Jul-26 08:34N 49°29' E 000°07'0 0.0
2016-Jul-26 07:33N 49°29' E 000°07'0 0.0
2016-Jul-26 06:33N 49°29' E 000°07'9 9.0
2016-Jul-26 05:33N 49°36' W 000°03'4 4.2
2016-Jul-26 04:33N 49°40' W 000°05'1414.1
2016-Jul-26 03:33N 49°52' W 000°15'1815.2
2016-Jul-26 02:21N 50°09' W 000°24'1315.6
2016-Jul-26 01:33N 50°20' W 000°34'1615.8
2016-Jul-26 00:34N 50°33' W 000°48'1515.4
2016-Jul-25 23:34N 50°44' W 001°05'4 4.4
2016-Jul-25 22:34N 50°49' W 001°06'0 0.0
2016-Jul-25 21:33N 50°49' W 001°06'0 0.2
2016-Jul-25 20:34N 50°49' W 001°06'1110.9
2016-Jul-25 19:33N 50°40' W 000°56'2019.4
2016-Jul-25 18:33N 50°22' W 000°42'2020.4
2016-Jul-25 17:33N 50°04' W 000°27'2120.9
2016-Jul-25 16:33N 49°46' W 000°12'2019.7
2016-Jul-25 15:34N 49°29' E 000°04'1 1.5
2016-Jul-25 14:33N 49°29' E 000°07'0 0.0
2016-Jul-25 13:33N 49°29' E 000°07'0 0.0
2016-Jul-25 12:33N 49°29' E 000°07'0 0.0
2016-Jul-25 11:33N 49°29' E 000°07'0 0.0
2016-Jul-25 10:33N 49°29' E 000°07'0 0.0
2016-Jul-25 09:33N 49°29' E 000°07'0 0.0
2016-Jul-25 08:33N 49°29' E 000°07'0 0.0
2016-Jul-25 07:33N 49°29' E 000°07'0 0.0
2016-Jul-25 06:33N 49°29' E 000°07'9 8.8
2016-Jul-25 05:33N 49°35' W 000°03'4 4.3
2016-Jul-25 04:34N 49°39' W 000°05'1110.9
2016-Jul-25 03:34N 49°48' W 000°14'1515.0
2016-Jul-25 02:34N 50°02' W 000°25'1615.5
2016-Jul-25 01:33N 50°16' W 000°35'1815.5
2016-Jul-25 00:26N 50°31' W 000°49'1315.2
2016-Jul-24 23:34N 50°43' W 000°59'7 7.5
2016-Jul-24 22:33N 50°49' W 001°06'0 0.0
2016-Jul-24 21:34N 50°49' W 001°06'0 0.1
2016-Jul-24 20:34N 50°49' W 001°06'9 9.5
2016-Jul-24 19:33N 50°41' W 000°57'2020.2
2016-Jul-24 18:33N 50°24' W 000°39'1918.8
2016-Jul-24 17:33N 50°06' W 000°30'2020.3
2016-Jul-24 16:34N 49°48' W 000°16'2020.2
2016-Jul-24 15:34N 49°31' E 000°01'4 4.5
2016-Jul-24 14:33N 49°29' E 000°07'0 0.0
2016-Jul-24 13:33N 49°29' E 000°07'0 0.0
2016-Jul-24 12:33N 49°29' E 000°07'0 0.0
2016-Jul-24 11:33N 49°29' E 000°07'0 0.0
2016-Jul-24 10:33N 49°29' E 000°07'0 0.0
2016-Jul-24 09:33N 49°29' E 000°07'0 0.0
2016-Jul-24 08:33N 49°29' E 000°07'0 0.0
2016-Jul-24 07:33N 49°29' E 000°07'0 0.0
2016-Jul-24 06:33N 49°29' E 000°07'9 9.3
2016-Jul-24 05:33N 49°35' W 000°05'6 6.0
2016-Jul-24 04:34N 49°40' W 000°07'8 7.9
2016-Jul-24 03:33N 49°47' W 000°13'1414.1
2016-Jul-24 02:33N 49°60' W 000°22'1514.7
2016-Jul-24 01:31N 50°14' W 000°33'1515.0
2016-Jul-24 00:30N 50°27' W 000°46'1415.2
2016-Jul-23 23:34N 50°39' W 000°56'1111.2
2016-Jul-23 22:33N 50°48' W 001°07'1 0.8
2016-Jul-23 21:33N 50°49' W 001°06'0 0.1
2016-Jul-23 20:34N 50°49' W 001°06'9 8.5
2016-Jul-23 19:34N 50°42' W 000°58'2019.7
2016-Jul-23 18:33N 50°24' W 000°44'2120.9
2016-Jul-23 17:34N 50°06' W 000°28'2020.1
2016-Jul-23 16:34N 49°47' W 000°16'2120.9
2016-Jul-23 15:34N 49°30' E 000°02'3 3.4
2016-Jul-23 14:34N 49°29' E 000°07'0 0.0
2016-Jul-23 13:33N 49°29' E 000°07'0 0.0
2016-Jul-23 12:33N 49°29' E 000°07'0 0.0
2016-Jul-23 11:33N 49°29' E 000°07'0 0.0
2016-Jul-23 10:33N 49°29' E 000°07'0 0.0
2016-Jul-23 09:33N 49°29' E 000°07'0 0.0
2016-Jul-23 08:33N 49°29' E 000°07'0 0.0
2016-Jul-23 07:34N 49°29' E 000°07'0 0.0
2016-Jul-23 06:33N 49°29' E 000°07'15 7.5
2016-Jul-23 04:34N 49°40' W 000°08'1 1.1
2016-Jul-23 03:33N 49°41' W 000°07'1 0.7
2016-Jul-23 02:33N 49°41' W 000°06'1110.9
2016-Jul-23 01:33N 49°50' W 000°17'1515.1
2016-Jul-23 00:33N 50°03' W 000°28'1615.6
2016-Jul-22 23:33N 50°17' W 000°38'1515.4
2016-Jul-22 22:33N 50°30' W 000°51'1514.8
2016-Jul-22 21:33N 50°43' W 001°01'6 6.1
2016-Jul-22 20:33N 50°49' W 001°06'0 0.0
2016-Jul-22 19:33N 50°49' W 001°06'0 0.0
2016-Jul-22 18:33N 50°49' W 001°06'0 0.0
2016-Jul-22 17:33N 50°49' W 001°06'0 0.0
2016-Jul-22 16:33N 50°49' W 001°06'0 0.0
2016-Jul-22 15:34N 50°49' W 001°06'0 0.0
2016-Jul-22 14:33N 50°49' W 001°06'0 0.0
2016-Jul-22 13:33N 50°49' W 001°06'0 0.0
2016-Jul-22 12:33N 50°49' W 001°06'0 0.0
2016-Jul-22 11:33N 50°49' W 001°06'0 0.0
2016-Jul-22 10:33N 50°49' W 001°06'0 0.0
2016-Jul-22 09:33N 50°49' W 001°06'0 0.0
2016-Jul-22 08:33N 50°49' W 001°06'0 0.0
2016-Jul-22 07:33N 50°49' W 001°06'3 1.6
2016-Jul-22 05:33N 50°45' W 001°05'1515.4
2016-Jul-22 04:33N 50°32' W 000°53'1814.2
2016-Jul-22 03:19N 50°17' W 000°38'1114.7
2016-Jul-22 02:33N 50°08' W 000°30'1514.8
2016-Jul-22 01:33N 49°55' W 000°19'1414.2
2016-Jul-22 00:34N 49°43' W 000°07'1 0.6
2016-Jul-21 23:33N 49°43' W 000°08'1 1.4
2016-Jul-21 22:33N 49°42' W 000°10'2 1.6
2016-Jul-21 21:33N 49°42' W 000°12'1111.3
2016-Jul-21 20:33N 49°33' W 000°01'6 6.4
2016-Jul-21 19:34N 49°29' E 000°07'0 0.0
2016-Jul-21 18:33N 49°29' E 000°07'0 0.0
2016-Jul-21 17:33N 49°29' E 000°07'0 0.0
2016-Jul-21 16:33N 49°29' E 000°07'0 0.0
2016-Jul-21 15:33N 49°29' E 000°07'0 0.0
2016-Jul-21 14:34N 49°29' E 000°07'0 0.0
2016-Jul-21 13:33N 49°29' E 000°07'0 0.0
2016-Jul-21 12:33N 49°29' E 000°07'0 0.0
2016-Jul-21 11:34N 49°29' E 000°07'0 0.0
2016-Jul-21 10:33N 49°29' E 000°07'0 0.0
2016-Jul-21 09:33N 49°29' E 000°07'0 0.0
2016-Jul-21 08:33N 49°29' E 000°07'0 0.0
2016-Jul-21 07:33N 49°29' E 000°07'0 0.0
2016-Jul-21 06:33N 49°29' E 000°07'8 8.2
2016-Jul-21 05:33N 49°35' W 000°03'1212.2
2016-Jul-21 04:33N 49°45' W 000°12'1211.5
2016-Jul-21 03:33N 49°55' W 000°22'1110.9
2016-Jul-21 02:33N 50°05' W 000°30'1212.2
2016-Jul-21 01:34N 50°15' W 000°39'1414.4
2016-Jul-21 00:33N 50°28' W 000°48'1414.4
2016-Jul-20 23:33N 50°41' W 000°58'9 8.8
2016-Jul-20 22:33N 50°49' W 001°06'0 0.0
2016-Jul-20 21:34N 50°49' W 001°06'1 0.6
2016-Jul-20 20:34N 50°49' W 001°07'1111.1
2016-Jul-20 19:34N 50°40' W 000°56'1918.7
2016-Jul-20 18:33N 50°23' W 000°42'1919.4
2016-Jul-20 17:34N 50°06' W 000°28'1919.3
2016-Jul-20 16:34N 49°49' W 000°15'2020.1
2016-Jul-20 15:33N 49°31' E 000°00'5 4.5
2016-Jul-20 14:33N 49°29' E 000°07'0 0.0
2016-Jul-20 13:33N 49°29' E 000°07'  
Track history (hours):
 
Tides and Currents Weather Stations Pressure Air Temp Water Temp Dewpoint Dewpoint Depression Visibility Wind Speed Wind Dir Waves Ship Positions

Etretat

Last reported at 2016-Jul-30 12:33 UTC. Time now 2016-Jul-30 13:08 UTC.
Position N 50°49' W 001°06'.

Length 187 m; draft 6 m.

Type: Ship. MMSI: 228022900.

Date/timePositionNaut miles runAvg speedWind from/ knotsBaromVisibWave heightAir tempDewpointWater temp
2016-Jul-30 12:33N 50°49' W 001°06'0 0.0
2016-Jul-30 11:33N 50°49' W 001°06'0 0.0
2016-Jul-30 10:33N 50°49' W 001°06'0 0.0
2016-Jul-30 09:33N 50°49' W 001°06'0 0.0
2016-Jul-30 08:33N 50°49' W 001°06'0 0.0
2016-Jul-30 07:34N 50°49' W 001°06'0 0.0
2016-Jul-30 06:34N 50°49' W 001°06'0 0.0
2016-Jul-30 05:34N 50°49' W 001°06'0 0.0
2016-Jul-30 04:34N 50°49' W 001°06'0 0.0
2016-Jul-30 03:34N 50°49' W 001°06'0 0.0
2016-Jul-30 02:33N 50°49' W 001°06'0 0.0
2016-Jul-30 01:33N 50°49' W 001°06'0 0.0
2016-Jul-30 00:33N 50°49' W 001°06'0 0.0
2016-Jul-29 23:33N 50°49' W 001°06'0 0.0
2016-Jul-29 22:33N 50°49' W 001°06'0 0.0
2016-Jul-29 21:33N 50°49' W 001°06'0 0.0
2016-Jul-29 20:33N 50°49' W 001°06'0 0.0
2016-Jul-29 19:33N 50°49' W 001°06'0 0.0
2016-Jul-29 18:33N 50°49' W 001°06'0 0.0
2016-Jul-29 17:33N 50°49' W 001°06'0 0.0
2016-Jul-29 16:34N 50°49' W 001°06'0 0.0
2016-Jul-29 15:33N 50°49' W 001°06'0 0.0
2016-Jul-29 14:33N 50°49' W 001°06'0 0.0
2016-Jul-29 13:34N 50°49' W 001°06'0 0.0
2016-Jul-29 12:33N 50°49' W 001°06'0 0.0
2016-Jul-29 11:33N 50°49' W 001°06'0 0.0
2016-Jul-29 10:33N 50°49' W 001°06'0 0.0
2016-Jul-29 09:33N 50°49' W 001°06'0 0.0
2016-Jul-29 08:33N 50°49' W 001°06'0 0.0
2016-Jul-29 07:34N 50°49' W 001°06'0 0.0
2016-Jul-29 06:33N 50°49' W 001°06'4 3.7
2016-Jul-29 05:34N 50°45' W 001°05'1616.4
2016-Jul-29 04:33N 50°32' W 000°49'1615.0
2016-Jul-29 03:27N 50°18' W 000°35'1314.8
2016-Jul-29 02:34N 50°06' W 000°27'1514.7
2016-Jul-29 01:33N 49°53' W 000°17'9 8.8
2016-Jul-29 00:33N 49°44' W 000°15'1 0.9
2016-Jul-28 23:33N 49°44' W 000°16'0 0.4
2016-Jul-28 22:33N 49°44' W 000°17'2 2.0
2016-Jul-28 21:33N 49°43' W 000°14'1211.9
2016-Jul-28 20:33N 49°34' W 000°03'8 7.8
2016-Jul-28 19:33N 49°29' E 000°07'0 0.0
2016-Jul-28 18:33N 49°29' E 000°07'0 0.0
2016-Jul-28 17:33N 49°29' E 000°07'0 0.0
2016-Jul-28 16:33N 49°29' E 000°07'0 0.0
2016-Jul-28 15:33N 49°29' E 000°07'0 0.0
2016-Jul-28 14:33N 49°29' E 000°07'0 0.0
2016-Jul-28 13:33N 49°29' E 000°07'0 0.0
2016-Jul-28 12:33N 49°29' E 000°07'0 0.0
2016-Jul-28 11:33N 49°29' E 000°07'0 0.0
2016-Jul-28 10:33N 49°29' E 000°07'0 0.0
2016-Jul-28 09:33N 49°29' E 000°07'0 0.0
2016-Jul-28 08:33N 49°29' E 000°07'0 0.0
2016-Jul-28 07:33N 49°29' E 000°07'0 0.0
2016-Jul-28 06:33N 49°29' E 000°07'9 8.8
2016-Jul-28 05:34N 49°36' W 000°02'3 3.4
2016-Jul-28 04:33N 49°38' W 000°05'1111.0
2016-Jul-28 03:33N 49°48' W 000°13'1515.3
2016-Jul-28 02:33N 50°02' W 000°24'1515.5
2016-Jul-28 01:33N 50°15' W 000°36'1615.1
2016-Jul-28 00:30N 50°29' W 000°47'1515.3
2016-Jul-27 23:34N 50°42' W 000°58'8 8.2
2016-Jul-27 22:33N 50°49' W 001°06'0 0.0
2016-Jul-27 21:33N 50°49' W 001°06'0 0.1
2016-Jul-27 20:33N 50°49' W 001°06'9 9.2
2016-Jul-27 19:33N 50°41' W 000°57'2020.4
2016-Jul-27 18:33N 50°24' W 000°41'2220.5
2016-Jul-27 17:30N 50°04' W 000°26'1920.5
2016-Jul-27 16:34N 49°47' W 000°13'2020.1
2016-Jul-27 15:33N 49°30' E 000°03'2 2.4
2016-Jul-27 14:33N 49°29' E 000°07'0 0.0
2016-Jul-27 13:33N 49°29' E 000°07'0 0.0
2016-Jul-27 12:33N 49°29' E 000°07'0 0.0
2016-Jul-27 11:33N 49°29' E 000°07'0 0.0
2016-Jul-27 10:33N 49°29' E 000°07'0 0.0
2016-Jul-27 09:33N 49°29' E 000°07'0 0.0
2016-Jul-27 08:33N 49°29' E 000°07'0 0.0
2016-Jul-27 07:33N 49°29' E 000°07'0 0.0
2016-Jul-27 06:33N 49°29' E 000°07'9 8.9
2016-Jul-27 05:33N 49°35' W 000°03'1312.8
2016-Jul-27 04:33N 49°47' W 000°12'1211.8
2016-Jul-27 03:34N 49°58' W 000°19'1413.9
2016-Jul-27 02:33N 50°10' W 000°28'3015.3
2016-Jul-27 00:34N 50°36' W 000°53'1212.3
2016-Jul-26 23:33N 50°46' W 001°05'3 2.9
2016-Jul-26 22:33N 50°49' W 001°06'0 0.0
2016-Jul-26 21:33N 50°49' W 001°06'0 0.3
2016-Jul-26 20:33N 50°49' W 001°06'10 9.9
2016-Jul-26 19:33N 50°41' W 000°57'2219.2
2016-Jul-26 18:25N 50°21' W 000°42'1720.0
2016-Jul-26 17:33N 50°06' W 000°28'2019.9
2016-Jul-26 16:33N 49°49' W 000°14'2020.2
2016-Jul-26 15:33N 49°31' E 000°01'4 4.1
2016-Jul-26 14:34N 49°29' E 000°07'0 0.0
2016-Jul-26 13:34N 49°29' E 000°07'0 0.0
2016-Jul-26 12:34N 49°29' E 000°07'0 0.0
2016-Jul-26 11:34N 49°29' E 000°07'0 0.0
2016-Jul-26 10:33N 49°29' E 000°07'0 0.0
2016-Jul-26 09:34N 49°29' E 000°07'0 0.0
2016-Jul-26 08:34N 49°29' E 000°07'0 0.0
2016-Jul-26 07:33N 49°29' E 000°07'0 0.0
2016-Jul-26 06:33N 49°29' E 000°07'9 9.0
2016-Jul-26 05:33N 49°36' W 000°03'4 4.2
2016-Jul-26 04:33N 49°40' W 000°05'1414.1
2016-Jul-26 03:33N 49°52' W 000°15'1815.2
2016-Jul-26 02:21N 50°09' W 000°24'1315.6
2016-Jul-26 01:33N 50°20' W 000°34'1615.8
2016-Jul-26 00:34N 50°33' W 000°48'1515.4
2016-Jul-25 23:34N 50°44' W 001°05'4 4.4
2016-Jul-25 22:34N 50°49' W 001°06'0 0.0
2016-Jul-25 21:33N 50°49' W 001°06'0 0.2
2016-Jul-25 20:34N 50°49' W 001°06'1110.9
2016-Jul-25 19:33N 50°40' W 000°56'2019.4
2016-Jul-25 18:33N 50°22' W 000°42'2020.4
2016-Jul-25 17:33N 50°04' W 000°27'2120.9
2016-Jul-25 16:33N 49°46' W 000°12'2019.7
2016-Jul-25 15:34N 49°29' E 000°04'1 1.5
2016-Jul-25 14:33N 49°29' E 000°07'0 0.0
2016-Jul-25 13:33N 49°29' E 000°07'0 0.0
2016-Jul-25 12:33N 49°29' E 000°07'0 0.0
2016-Jul-25 11:33N 49°29' E 000°07'0 0.0
2016-Jul-25 10:33N 49°29' E 000°07'0 0.0
2016-Jul-25 09:33N 49°29' E 000°07'0 0.0
2016-Jul-25 08:33N 49°29' E 000°07'0 0.0
2016-Jul-25 07:33N 49°29' E 000°07'0 0.0
2016-Jul-25 06:33N 49°29' E 000°07'9 8.8
2016-Jul-25 05:33N 49°35' W 000°03'4 4.3
2016-Jul-25 04:34N 49°39' W 000°05'1110.9
2016-Jul-25 03:34N 49°48' W 000°14'1515.0
2016-Jul-25 02:34N 50°02' W 000°25'1615.5
2016-Jul-25 01:33N 50°16' W 000°35'1815.5
2016-Jul-25 00:26N 50°31' W 000°49'1315.2
2016-Jul-24 23:34N 50°43' W 000°59'7 7.5
2016-Jul-24 22:33N 50°49' W 001°06'0 0.0
2016-Jul-24 21:34N 50°49' W 001°06'0 0.1
2016-Jul-24 20:34N 50°49' W 001°06'9 9.5
2016-Jul-24 19:33N 50°41' W 000°57'2020.2
2016-Jul-24 18:33N 50°24' W 000°39'1918.8
2016-Jul-24 17:33N 50°06' W 000°30'2020.3
2016-Jul-24 16:34N 49°48' W 000°16'2020.2
2016-Jul-24 15:34N 49°31' E 000°01'4 4.5
2016-Jul-24 14:33N 49°29' E 000°07'0 0.0
2016-Jul-24 13:33N 49°29' E 000°07'0 0.0
2016-Jul-24 12:33N 49°29' E 000°07'0 0.0
2016-Jul-24 11:33N 49°29' E 000°07'0 0.0
2016-Jul-24 10:33N 49°29' E 000°07'0 0.0
2016-Jul-24 09:33N 49°29' E 000°07'0 0.0
2016-Jul-24 08:33N 49°29' E 000°07'0 0.0
2016-Jul-24 07:33N 49°29' E 000°07'0 0.0
2016-Jul-24 06:33N 49°29' E 000°07'9 9.3
2016-Jul-24 05:33N 49°35' W 000°05'6 6.0
2016-Jul-24 04:34N 49°40' W 000°07'8 7.9
2016-Jul-24 03:33N 49°47' W 000°13'1414.1
2016-Jul-24 02:33N 49°60' W 000°22'1514.7
2016-Jul-24 01:31N 50°14' W 000°33'1515.0
2016-Jul-24 00:30N 50°27' W 000°46'1415.2
2016-Jul-23 23:34N 50°39' W 000°56'1111.2
2016-Jul-23 22:33N 50°48' W 001°07'1 0.8
2016-Jul-23 21:33N 50°49' W 001°06'0 0.1
2016-Jul-23 20:34N 50°49' W 001°06'9 8.5
2016-Jul-23 19:34N 50°42' W 000°58'2019.7
2016-Jul-23 18:33N 50°24' W 000°44'2120.9
2016-Jul-23 17:34N 50°06' W 000°28'2020.1
2016-Jul-23 16:34N 49°47' W 000°16'2120.9
2016-Jul-23 15:34N 49°30' E 000°02'3 3.4
2016-Jul-23 14:34N 49°29' E 000°07'0 0.0
2016-Jul-23 13:33N 49°29' E 000°07'0 0.0
2016-Jul-23 12:33N 49°29' E 000°07'0 0.0
2016-Jul-23 11:33N 49°29' E 000°07'0 0.0
2016-Jul-23 10:33N 49°29' E 000°07'0 0.0
2016-Jul-23 09:33N 49°29' E 000°07'0 0.0
2016-Jul-23 08:33N 49°29' E 000°07'0 0.0
2016-Jul-23 07:34N 49°29' E 000°07'0 0.0
2016-Jul-23 06:33N 49°29' E 000°07'15 7.5
2016-Jul-23 04:34N 49°40' W 000°08'1 1.1
2016-Jul-23 03:33N 49°41' W 000°07'1 0.7
2016-Jul-23 02:33N 49°41' W 000°06'1110.9
2016-Jul-23 01:33N 49°50' W 000°17'1515.1
2016-Jul-23 00:33N 50°03' W 000°28'1615.6
2016-Jul-22 23:33N 50°17' W 000°38'1515.4
2016-Jul-22 22:33N 50°30' W 000°51'1514.8
2016-Jul-22 21:33N 50°43' W 001°01'6 6.1
2016-Jul-22 20:33N 50°49' W 001°06'0 0.0
2016-Jul-22 19:33N 50°49' W 001°06'0 0.0
2016-Jul-22 18:33N 50°49' W 001°06'0 0.0
2016-Jul-22 17:33N 50°49' W 001°06'0 0.0
2016-Jul-22 16:33N 50°49' W 001°06'0 0.0
2016-Jul-22 15:34N 50°49' W 001°06'0 0.0
2016-Jul-22 14:33N 50°49' W 001°06'0 0.0
2016-Jul-22 13:33N 50°49' W 001°06'0 0.0
2016-Jul-22 12:33N 50°49' W 001°06'0 0.0
2016-Jul-22 11:33N 50°49' W 001°06'0 0.0
2016-Jul-22 10:33N 50°49' W 001°06'0 0.0
2016-Jul-22 09:33N 50°49' W 001°06'0 0.0
2016-Jul-22 08:33N 50°49' W 001°06'0 0.0
2016-Jul-22 07:33N 50°49' W 001°06'3 1.6
2016-Jul-22 05:33N 50°45' W 001°05'1515.4
2016-Jul-22 04:33N 50°32' W 000°53'1814.2
2016-Jul-22 03:19N 50°17' W 000°38'1114.7
2016-Jul-22 02:33N 50°08' W 000°30'1514.8
2016-Jul-22 01:33N 49°55' W 000°19'1414.2
2016-Jul-22 00:34N 49°43' W 000°07'1 0.6
2016-Jul-21 23:33N 49°43' W 000°08'1 1.4
2016-Jul-21 22:33N 49°42' W 000°10'2 1.6
2016-Jul-21 21:33N 49°42' W 000°12'1111.3
2016-Jul-21 20:33N 49°33' W 000°01'6 6.4
2016-Jul-21 19:34N 49°29' E 000°07'0 0.0
2016-Jul-21 18:33N 49°29' E 000°07'0 0.0
2016-Jul-21 17:33N 49°29' E 000°07'0 0.0
2016-Jul-21 16:33N 49°29' E 000°07'0 0.0
2016-Jul-21 15:33N 49°29' E 000°07'0 0.0
2016-Jul-21 14:34N 49°29' E 000°07'0 0.0
2016-Jul-21 13:33N 49°29' E 000°07'0 0.0
2016-Jul-21 12:33N 49°29' E 000°07'0 0.0
2016-Jul-21 11:34N 49°29' E 000°07'0 0.0
2016-Jul-21 10:33N 49°29' E 000°07'0 0.0
2016-Jul-21 09:33N 49°29' E 000°07'0 0.0
2016-Jul-21 08:33N 49°29' E 000°07'0 0.0
2016-Jul-21 07:33N 49°29' E 000°07'0 0.0
2016-Jul-21 06:33N 49°29' E 000°07'8 8.2
2016-Jul-21 05:33N 49°35' W 000°03'1212.2
2016-Jul-21 04:33N 49°45' W 000°12'1211.5
2016-Jul-21 03:33N 49°55' W 000°22'1110.9
2016-Jul-21 02:33N 50°05' W 000°30'1212.2
2016-Jul-21 01:34N 50°15' W 000°39'1414.4
2016-Jul-21 00:33N 50°28' W 000°48'1414.4
2016-Jul-20 23:33N 50°41' W 000°58'9 8.8
2016-Jul-20 22:33N 50°49' W 001°06'0 0.0
2016-Jul-20 21:34N 50°49' W 001°06'1 0.6
2016-Jul-20 20:34N 50°49' W 001°07'1111.1
2016-Jul-20 19:34N 50°40' W 000°56'1918.7
2016-Jul-20 18:33N 50°23' W 000°42'1919.4
2016-Jul-20 17:34N 50°06' W 000°28'1919.3
2016-Jul-20 16:34N 49°49' W 000°15'2020.1
2016-Jul-20 15:33N 49°31' E 000°00'5 4.5
2016-Jul-20 14:33N 49°29' E 000°07'0 0.0
2016-Jul-20 13:33N 49°29' E 000°07'  

Dump ship's entire track history